Time;durP1;ratioP1;P1;durP2;ratioP2;P2;SDS_P1;SDS_P2;PMS_P1;PMS_P2;Temp;Humidity;BMP_temperature;BMP_pressure;BME280_temperature;BME280_humidity;BME280_pressure;Samples;Min_cycle;Max_cycle;Signal;HPM_P1;HPM_P2
2023/02/02 00:00:51;;;;;;;13.23;4.72;;;7.60;99.90;;;;;;5003081;28;20759;-74
2023/02/02 00:03:38;;;;;;;14.52;3.58;;;7.60;99.90;;;;;;5005823;28;20225;-74
2023/02/02 00:06:25;;;;;;;16.17;3.67;;;7.60;99.90;;;;;;5005351;28;20210;-74
2023/02/02 00:09:12;;;;;;;18.00;2.90;;;7.60;99.90;;;;;;4991085;28;20453;-74
2023/02/02 00:12:00;;;;;;;27.27;4.22;;;7.60;99.90;;;;;;5002294;28;20481;-74
2023/02/02 00:14:46;;;;;;;12.82;3.45;;;7.60;99.90;;;;;;5004166;28;20213;-74
2023/02/02 00:17:32;;;;;;;15.53;4.30;;;7.70;99.90;;;;;;4997890;28;20202;-74
2023/02/02 00:20:17;;;;;;;22.37;3.73;;;7.80;99.90;;;;;;4998272;28;20532;-74
2023/02/02 00:23:04;;;;;;;16.90;4.15;;;7.70;99.90;;;;;;5002702;28;20480;-74
2023/02/02 00:25:50;;;;;;;10.83;3.90;;;7.80;99.90;;;;;;5000495;28;20349;-73
2023/02/02 00:28:37;;;;;;;11.75;3.78;;;7.80;99.90;;;;;;4999043;28;21031;-74
2023/02/02 00:31:23;;;;;;;20.38;4.10;;;7.80;99.90;;;;;;4999427;28;20724;-74
2023/02/02 00:34:11;;;;;;;11.30;3.33;;;7.70;99.90;;;;;;4999539;28;20341;-74
2023/02/02 00:36:56;;;;;;;23.63;4.67;;;7.70;99.90;;;;;;5000424;28;21107;-74
2023/02/02 00:39:42;;;;;;;17.50;3.90;;;7.70;99.90;;;;;;4999420;28;20560;-74
2023/02/02 00:42:28;;;;;;;22.95;4.70;;;7.80;99.90;;;;;;4994241;28;20548;-73
2023/02/02 00:45:15;;;;;;;17.73;5.13;;;7.80;99.90;;;;;;4999651;28;20206;-73
2023/02/02 00:48:01;;;;;;;12.63;3.40;;;7.80;99.90;;;;;;5001521;28;20389;-74
2023/02/02 00:50:47;;;;;;;21.67;4.82;;;7.70;99.90;;;;;;5008594;28;20453;-73
2023/02/02 00:53:32;;;;;;;11.30;3.43;;;7.80;99.90;;;;;;5003737;28;20338;-73
2023/02/02 00:56:18;;;;;;;21.50;4.43;;;7.70;99.90;;;;;;5004363;28;20595;-74
2023/02/02 00:59:03;;;;;;;14.87;4.37;;;7.70;99.90;;;;;;5007010;28;20210;-74
2023/02/02 01:01:50;;;;;;;19.30;3.37;;;7.80;99.90;;;;;;5000638;28;20488;-74
2023/02/02 01:04:36;;;;;;;14.90;3.70;;;7.80;99.90;;;;;;5005734;28;20492;-74
2023/02/02 01:07:22;;;;;;;22.77;4.50;;;7.80;99.90;;;;;;5004748;28;20206;-74
2023/02/02 01:10:11;;;;;;;21.70;4.20;;;7.70;99.90;;;;;;5011049;28;20437;-73
2023/02/02 01:12:56;;;;;;;23.93;4.33;;;7.80;99.90;;;;;;5008471;28;20520;-74
2023/02/02 01:15:42;;;;;;;13.05;3.53;;;7.80;99.90;;;;;;4999182;28;20921;-73
2023/02/02 01:18:30;;;;;;;22.33;4.65;;;7.80;99.90;;;;;;5003966;28;20350;-74
2023/02/02 01:21:15;;;;;;;14.53;3.70;;;7.80;99.90;;;;;;5005835;28;20238;-74
2023/02/02 01:24:01;;;;;;;13.43;4.22;;;7.70;99.90;;;;;;5005551;28;20488;-74
2023/02/02 01:26:47;;;;;;;12.10;3.70;;;7.60;99.90;;;;;;4997290;28;20222;-73
2023/02/02 01:29:33;;;;;;;13.32;3.20;;;7.70;99.90;;;;;;5005653;28;20215;-73
2023/02/02 01:32:18;;;;;;;19.05;5.10;;;7.70;99.90;;;;;;5008734;28;20221;-73
2023/02/02 01:35:06;;;;;;;14.02;2.97;;;7.70;99.90;;;;;;5008143;28;20679;-74
2023/02/02 01:37:51;;;;;;;16.10;3.90;;;7.80;99.90;;;;;;5001273;28;20287;-73
2023/02/02 01:40:37;;;;;;;14.50;3.40;;;7.70;99.90;;;;;;5004970;28;20210;-73
2023/02/02 01:43:25;;;;;;;15.15;4.18;;;7.70;99.90;;;;;;5009198;28;20475;-73
2023/02/02 01:46:12;;;;;;;10.40;4.00;;;7.70;99.90;;;;;;5000868;28;20260;-74
2023/02/02 01:49:03;;;;;;;13.17;3.80;;;7.70;99.90;;;;;;5002868;28;20484;-74
2023/02/02 01:51:53;;;;;;;13.43;3.50;;;7.60;99.90;;;;;;5006328;28;20450;-73
2023/02/02 01:54:41;;;;;;;15.95;4.38;;;7.70;99.90;;;;;;5009729;28;20426;-73
2023/02/02 01:57:37;;;;;;;9.57;3.50;;;7.70;99.90;;;;;;5008472;28;20281;-74
2023/02/02 02:00:26;;;;;;;16.00;3.95;;;7.70;99.90;;;;;;5007104;28;20449;-74
2023/02/02 02:03:15;;;;;;;17.40;3.83;;;7.70;99.90;;;;;;5006857;28;20296;-74
2023/02/02 02:06:04;;;;;;;22.03;4.63;;;7.70;99.90;;;;;;4996010;28;20213;-74
2023/02/02 02:08:54;;;;;;;12.02;3.63;;;7.70;99.90;;;;;;5003180;28;20460;-74
2023/02/02 02:11:40;;;;;;;10.50;3.77;;;7.70;99.90;;;;;;5003674;28;20226;-74
2023/02/02 02:17:44;;;;;;;16.40;3.85;;;7.80;99.90;;;;;;4998251;28;20552;-73
2023/02/02 02:28:10;;;;;;;16.85;4.25;;;7.70;99.90;;;;;;4998639;28;20265;-74
2023/02/02 02:31:25;;;;;;;18.07;3.47;;;7.70;99.90;;;;;;5005796;28;20699;-73
2023/02/02 02:34:18;;;;;;;20.70;4.13;;;7.70;99.90;;;;;;4982408;28;20458;-74
2023/02/02 02:37:10;;;;;;;12.10;3.70;;;7.70;99.90;;;;;;4998911;28;20226;-74
2023/02/02 02:40:01;;;;;;;16.95;3.60;;;7.70;99.90;;;;;;5004778;28;20425;-74
2023/02/02 02:42:53;;;;;;;9.70;3.60;;;7.70;99.90;;;;;;4999423;28;20257;-73
2023/02/02 02:45:41;;;;;;;13.30;3.60;;;7.70;99.90;;;;;;4992912;28;20581;-73
2023/02/02 02:48:26;;;;;;;10.27;3.80;;;7.70;99.90;;;;;;4994057;28;20846;-74
2023/02/02 02:51:42;;;;;;;19.00;4.30;;;7.80;99.90;;;;;;5004119;28;20453;-74
2023/02/02 02:54:31;;;;;;;10.18;3.53;;;7.70;99.90;;;;;;4997076;28;20427;-73
2023/02/02 02:57:39;;;;;;;21.27;3.70;;;7.70;99.90;;;;;;5001630;28;20202;-74
2023/02/02 03:00:42;;;;;;;11.75;3.40;;;7.70;99.90;;;;;;5004759;28;20219;-74
2023/02/02 03:03:41;;;;;;;18.02;4.05;;;7.60;99.90;;;;;;5004275;28;20211;-74
2023/02/02 03:06:32;;;;;;;13.52;3.38;;;7.70;99.90;;;;;;5000241;28;20218;-74
2023/02/02 03:09:23;;;;;;;14.70;3.90;;;7.60;99.90;;;;;;5005876;28;20329;-74
2023/02/02 03:12:08;;;;;;;14.45;3.22;;;7.70;99.90;;;;;;5005344;28;20222;-74
2023/02/02 03:14:54;;;;;;;18.00;5.37;;;7.60;99.90;;;;;;4998725;28;20199;-73
2023/02/02 03:17:41;;;;;;;13.60;3.27;;;7.70;99.90;;;;;;5004692;28;20520;-73
2023/02/02 03:20:26;;;;;;;14.73;3.50;;;7.60;99.90;;;;;;5007159;28;20942;-74
2023/02/02 03:23:12;;;;;;;15.30;4.05;;;7.50;99.90;;;;;;5007110;28;20205;-73
2023/02/02 03:26:00;;;;;;;16.88;4.38;;;7.50;99.90;;;;;;5002881;28;20836;-74
2023/02/02 03:28:46;;;;;;;12.67;3.43;;;7.50;99.90;;;;;;5000810;28;20339;-74
2023/02/02 03:31:32;;;;;;;8.83;3.50;;;7.50;99.90;;;;;;5008698;28;20489;-74
2023/02/02 03:34:17;;;;;;;18.60;3.90;;;7.40;99.90;;;;;;5005231;28;20848;-73
2023/02/02 03:37:03;;;;;;;23.95;3.85;;;7.40;99.90;;;;;;5001418;28;21449;-73
2023/02/02 03:39:49;;;;;;;15.70;3.63;;;7.50;99.90;;;;;;5006638;28;20264;-74
2023/02/02 03:42:36;;;;;;;13.77;3.80;;;7.50;99.90;;;;;;4996770;28;20489;-73
2023/02/02 03:45:21;;;;;;;16.27;3.40;;;7.50;99.90;;;;;;5001925;28;20477;-74
2023/02/02 03:48:07;;;;;;;14.73;3.40;;;7.50;99.90;;;;;;5003557;28;20453;-74
2023/02/02 03:50:53;;;;;;;15.98;5.10;;;7.50;99.90;;;;;;5008703;28;20470;-74
2023/02/02 03:53:39;;;;;;;14.10;3.20;;;7.60;99.90;;;;;;4999222;28;20206;-73
2023/02/02 03:56:24;;;;;;;11.13;3.33;;;7.50;99.90;;;;;;4998723;28;20229;-74
2023/02/02 03:59:12;;;;;;;16.73;4.63;;;7.60;99.90;;;;;;4999897;28;20542;-74
2023/02/02 04:01:57;;;;;;;16.13;3.40;;;7.60;99.90;;;;;;5000311;28;20902;-74
2023/02/02 04:04:43;;;;;;;13.00;3.07;;;7.60;99.90;;;;;;4993396;28;20818;-74
2023/02/02 04:07:29;;;;;;;11.48;3.58;;;7.50;99.90;;;;;;5001165;28;20824;-73
2023/02/02 04:10:15;;;;;;;19.63;3.63;;;7.50;99.90;;;;;;5000194;28;20257;-73
2023/02/02 04:13:00;;;;;;;12.25;3.28;;;7.50;99.90;;;;;;4999789;28;20206;-73
2023/02/02 04:15:47;;;;;;;10.00;3.10;;;7.50;99.90;;;;;;4995314;28;20677;-74
2023/02/02 04:18:33;;;;;;;12.93;4.13;;;7.40;99.90;;;;;;5002759;28;20839;-74
2023/02/02 04:21:19;;;;;;;17.03;3.20;;;7.40;99.90;;;;;;4998955;28;20620;-74
2023/02/02 04:24:05;;;;;;;14.80;4.40;;;7.40;99.90;;;;;;4995197;28;20520;-74
2023/02/02 04:26:51;;;;;;;17.17;3.77;;;7.50;99.90;;;;;;5003975;28;20498;-73
2023/02/02 04:29:37;;;;;;;21.45;4.00;;;7.40;99.90;;;;;;4996382;28;20453;-73
2023/02/02 04:32:24;;;;;;;25.95;4.38;;;7.40;99.90;;;;;;5005139;28;20222;-73
2023/02/02 04:35:10;;;;;;;20.98;4.53;;;7.40;99.90;;;;;;5003033;28;20205;-73
2023/02/02 04:37:56;;;;;;;16.90;3.60;;;7.40;99.90;;;;;;5005044;28;20687;-73
2023/02/02 04:40:43;;;;;;;8.47;2.67;;;7.50;99.90;;;;;;5001068;28;20452;-73
2023/02/02 04:43:28;;;;;;;15.55;3.25;;;7.50;99.90;;;;;;4991976;28;20933;-73
2023/02/02 04:46:15;;;;;;;21.75;3.83;;;7.60;99.90;;;;;;4992839;28;20560;-74
2023/02/02 04:49:01;;;;;;;18.27;3.63;;;7.60;99.90;;;;;;5001567;28;20258;-73
2023/02/02 04:51:49;;;;;;;9.73;2.63;;;7.50;99.90;;;;;;5004159;28;20473;-73
2023/02/02 04:54:34;;;;;;;9.63;3.37;;;7.60;99.90;;;;;;4998018;28;20211;-73
2023/02/02 04:57:20;;;;;;;17.58;3.60;;;7.60;99.90;;;;;;4997838;28;20432;-74
2023/02/02 05:00:07;;;;;;;14.77;3.30;;;7.60;99.90;;;;;;5001166;28;20202;-73
2023/02/02 05:02:52;;;;;;;13.30;3.10;;;7.60;99.90;;;;;;5004473;28;20436;-73
2023/02/02 05:05:39;;;;;;;9.83;3.13;;;7.60;99.90;;;;;;5002582;28;20543;-74
2023/02/02 05:08:25;;;;;;;14.43;3.15;;;7.60;99.90;;;;;;4999901;28;20531;-74
2023/02/02 05:11:12;;;;;;;11.63;3.42;;;7.70;99.90;;;;;;5001827;28;20332;-74
2023/02/02 05:13:58;;;;;;;11.38;3.55;;;7.60;99.90;;;;;;4999313;28;20206;-73
2023/02/02 05:16:44;;;;;;;16.50;3.87;;;7.70;99.90;;;;;;5003419;28;20225;-74
2023/02/02 05:19:29;;;;;;;8.17;3.30;;;7.80;99.90;;;;;;5007931;28;20864;-73
2023/02/02 05:22:16;;;;;;;11.70;3.60;;;7.80;99.90;;;;;;5005639;28;20457;-74
2023/02/02 05:25:02;;;;;;;15.90;3.47;;;7.70;99.90;;;;;;4996480;28;20549;-74
2023/02/02 05:27:47;;;;;;;7.73;2.83;;;7.70;99.90;;;;;;4998775;28;20536;-74
2023/02/02 05:30:33;;;;;;;14.70;3.10;;;7.70;99.90;;;;;;5005707;28;20480;-73
2023/02/02 05:33:19;;;;;;;14.73;3.00;;;7.90;99.90;;;;;;4999608;28;20449;-74
2023/02/02 05:36:06;;;;;;;9.55;2.85;;;7.90;99.90;;;;;;4992845;28;20453;-73
2023/02/02 05:38:52;;;;;;;12.93;3.20;;;7.90;99.90;;;;;;4997381;28;20276;-74
2023/02/02 05:41:38;;;;;;;13.80;3.08;;;7.80;99.90;;;;;;5028077;22;20732;-74
2023/02/02 05:44:24;;;;;;;14.05;3.45;;;7.80;99.90;;;;;;5034296;28;20727;-73
2023/02/02 05:47:09;;;;;;;11.65;3.50;;;7.80;99.90;;;;;;5043338;28;20221;-74
2023/02/02 05:49:55;;;;;;;18.63;4.03;;;7.80;99.90;;;;;;5038217;28;20287;-73
2023/02/02 05:52:42;;;;;;;6.90;2.80;;;7.80;99.90;;;;;;5023725;28;20464;-76
2023/02/02 05:55:29;;;;;;;12.20;3.63;;;7.80;99.90;;;;;;5019016;28;20328;-74
2023/02/02 05:58:15;;;;;;;11.03;3.30;;;7.80;99.90;;;;;;5020476;28;20708;-74
2023/02/02 06:01:02;;;;;;;9.40;2.92;;;7.80;99.90;;;;;;5024120;28;20534;-73
2023/02/02 06:03:48;;;;;;;7.70;2.30;;;7.80;99.90;;;;;;5021642;28;20571;-74
2023/02/02 06:06:34;;;;;;;11.73;3.17;;;7.90;99.90;;;;;;5024759;28;20206;-73
2023/02/02 06:09:19;;;;;;;9.70;3.33;;;7.80;99.90;;;;;;5020982;28;20450;-73
2023/02/02 06:12:07;;;;;;;10.17;2.80;;;7.80;99.90;;;;;;5024089;28;20479;-73
2023/02/02 06:14:53;;;;;;;10.60;3.55;;;7.80;99.90;;;;;;5022269;28;20443;-74
2023/02/02 06:17:38;;;;;;;16.97;3.57;;;7.80;99.90;;;;;;5024054;28;20205;-73
2023/02/02 06:20:24;;;;;;;18.65;3.60;;;7.80;99.90;;;;;;5025832;28;20422;-76
2023/02/02 06:23:10;;;;;;;11.63;2.70;;;7.80;99.90;;;;;;5022968;28;20264;-73
2023/02/02 06:25:55;;;;;;;8.35;2.60;;;7.80;99.90;;;;;;5025726;28;20288;-75
2023/02/02 06:28:42;;;;;;;5.78;2.60;;;7.80;99.90;;;;;;5023977;28;20200;-74
2023/02/02 06:31:28;;;;;;;11.83;2.93;;;7.90;99.90;;;;;;5027065;28;20587;-74
2023/02/02 06:34:13;;;;;;;13.23;3.33;;;7.90;99.90;;;;;;5022049;28;20439;-74
2023/02/02 06:36:59;;;;;;;9.60;2.97;;;7.90;99.90;;;;;;5018249;28;20221;-73
2023/02/02 06:39:45;;;;;;;14.18;4.80;;;7.90;99.90;;;;;;5022240;28;20349;-73
2023/02/02 06:42:30;;;;;;;11.75;3.42;;;7.80;99.90;;;;;;5022192;28;20315;-73
2023/02/02 06:45:18;;;;;;;13.00;3.00;;;7.80;99.90;;;;;;5025993;28;20364;-73
2023/02/02 06:48:09;;;;;;;10.73;3.00;;;7.80;99.90;;;;;;5025370;28;20424;-73
2023/02/02 06:50:58;;;;;;;13.40;2.90;;;7.90;99.90;;;;;;5026918;28;20432;-74
2023/02/02 06:53:44;;;;;;;7.00;2.63;;;7.90;99.90;;;;;;5018602;28;21003;-74
2023/02/02 06:56:29;;;;;;;8.27;3.10;;;7.90;99.90;;;;;;5019789;28;20449;-73
2023/02/02 06:59:15;;;;;;;11.17;2.97;;;7.90;99.90;;;;;;5016669;28;20423;-74
2023/02/02 07:02:02;;;;;;;13.13;3.20;;;7.90;99.90;;;;;;5019699;28;20475;-73
2023/02/02 07:04:47;;;;;;;8.97;2.80;;;8.00;99.90;;;;;;5021657;28;20511;-73
2023/02/02 07:07:34;;;;;;;12.90;3.67;;;8.00;99.90;;;;;;5022500;28;21202;-76
2023/02/02 07:10:19;;;;;;;7.40;3.10;;;7.90;99.90;;;;;;5023411;28;20419;-73
2023/02/02 07:13:05;;;;;;;13.93;3.40;;;7.90;99.90;;;;;;5015436;28;20504;-73
2023/02/02 07:15:53;;;;;;;7.18;2.60;;;7.90;99.90;;;;;;5023915;28;20205;-74
2023/02/02 07:18:41;;;;;;;11.40;3.70;;;7.90;99.90;;;;;;5028838;28;20209;-75
2023/02/02 07:21:28;;;;;;;13.90;3.00;;;7.80;99.90;;;;;;5014742;28;20625;-75
2023/02/02 07:24:14;;;;;;;9.40;2.73;;;7.90;99.90;;;;;;5026890;28;20449;-74
2023/02/02 07:27:00;;;;;;;10.17;2.60;;;7.80;99.90;;;;;;5020958;28;20468;-74
2023/02/02 07:29:45;;;;;;;14.43;4.10;;;7.90;99.90;;;;;;5023304;28;20712;-73
2023/02/02 07:32:31;;;;;;;16.33;4.87;;;7.90;99.90;;;;;;5020444;28;20827;-75
2023/02/02 07:35:18;;;;;;;9.70;2.77;;;8.00;99.90;;;;;;5026664;28;20456;-74
2023/02/02 07:38:04;;;;;;;12.88;4.00;;;8.00;99.90;;;;;;5020634;28;20452;-73
2023/02/02 07:40:50;;;;;;;14.00;2.92;;;8.00;99.90;;;;;;5024902;28;20230;-73
2023/02/02 07:43:35;;;;;;;10.18;3.90;;;8.00;99.90;;;;;;5020223;28;20208;-73
2023/02/02 07:46:21;;;;;;;10.98;3.22;;;8.00;99.90;;;;;;5020526;28;20225;-74
2023/02/02 07:49:07;;;;;;;73.10;31.52;;;8.10;99.90;;;;;;5022683;28;20212;-74
2023/02/02 07:51:54;;;;;;;19.90;7.28;;;8.10;99.90;;;;;;5016793;28;20226;-73
2023/02/02 07:54:39;;;;;;;28.55;12.40;;;8.10;99.90;;;;;;5020206;28;20403;-73
2023/02/02 07:57:25;;;;;;;26.83;12.55;;;8.10;99.90;;;;;;5021472;28;20205;-73
2023/02/02 08:00:12;;;;;;;20.70;7.53;;;8.10;99.90;;;;;;5026018;28;20561;-74
2023/02/02 08:02:57;;;;;;;17.60;6.70;;;8.20;99.90;;;;;;5020766;28;20554;-73
2023/02/02 08:05:43;;;;;;;11.45;3.40;;;8.20;99.90;;;;;;5017076;28;20891;-72
2023/02/02 08:08:30;;;;;;;19.37;3.73;;;8.10;99.90;;;;;;5023683;28;20213;-72
2023/02/02 08:11:18;;;;;;;7.10;3.00;;;8.10;99.90;;;;;;5020948;28;20583;-72
2023/02/02 08:14:04;;;;;;;8.23;3.50;;;8.10;99.90;;;;;;5015978;28;20457;-73
2023/02/02 08:16:50;;;;;;;10.20;3.37;;;8.00;99.90;;;;;;5025913;28;20455;-73
2023/02/02 08:19:35;;;;;;;20.80;4.30;;;8.00;99.90;;;;;;5017854;28;20460;-74
2023/02/02 08:22:21;;;;;;;23.55;6.03;;;8.10;99.90;;;;;;5017759;28;20996;-73
2023/02/02 08:25:09;;;;;;;11.63;3.70;;;8.10;99.90;;;;;;5023524;28;20610;-74
2023/02/02 08:27:57;;;;;;;15.23;3.63;;;8.10;99.90;;;;;;5026319;28;20927;-73
2023/02/02 08:30:43;;;;;;;16.00;3.17;;;8.10;99.90;;;;;;5014311;28;20449;-74
2023/02/02 08:33:28;;;;;;;8.67;2.97;;;8.10;99.90;;;;;;5015631;28;20451;-75
2023/02/02 08:36:16;;;;;;;15.57;5.50;;;8.20;99.90;;;;;;5016541;28;20452;-73
2023/02/02 08:39:04;;;;;;;14.02;3.60;;;8.20;99.90;;;;;;5029104;28;20480;-74
2023/02/02 08:41:51;;;;;;;9.70;3.33;;;8.20;99.90;;;;;;5021099;28;20295;-74
2023/02/02 08:44:36;;;;;;;14.27;3.00;;;8.30;99.90;;;;;;5023127;28;21066;-74
2023/02/02 08:47:22;;;;;;;11.90;2.93;;;8.30;99.90;;;;;;5026420;28;20439;-75
2023/02/02 08:50:09;;;;;;;10.97;3.40;;;8.30;99.90;;;;;;5021920;28;20714;-74
2023/02/02 08:52:54;;;;;;;17.63;3.63;;;8.40;99.90;;;;;;5023324;28;20448;-73
2023/02/02 08:55:40;;;;;;;17.63;3.90;;;8.30;99.90;;;;;;5033151;28;20582;-73
2023/02/02 08:58:28;;;;;;;16.93;3.57;;;8.30;99.90;;;;;;5030448;28;20427;-74
2023/02/02 09:01:15;;;;;;;16.95;4.10;;;8.30;99.90;;;;;;5023579;28;21085;-75
2023/02/02 09:04:03;;;;;;;21.63;8.53;;;8.40;99.90;;;;;;5030021;28;20593;-74
2023/02/02 09:06:48;;;;;;;14.93;6.80;;;8.30;99.90;;;;;;5024218;28;20468;-73
2023/02/02 09:09:34;;;;;;;16.67;4.00;;;8.30;99.90;;;;;;5022635;28;20960;-75
2023/02/02 09:12:20;;;;;;;20.87;5.30;;;8.40;99.90;;;;;;5022746;28;20961;-74
2023/02/02 09:15:07;;;;;;;10.50;3.73;;;8.40;99.90;;;;;;5021638;28;20444;-73
2023/02/02 09:17:53;;;;;;;17.63;4.77;;;8.40;99.90;;;;;;5030097;28;20514;-73
2023/02/02 09:20:40;;;;;;;15.53;4.97;;;8.40;99.90;;;;;;5025651;28;20798;-73
2023/02/02 09:23:26;;;;;;;9.83;3.27;;;8.40;99.90;;;;;;5027178;28;20575;-73
2023/02/02 09:26:13;;;;;;;14.47;4.03;;;8.40;99.90;;;;;;5033012;28;20558;-74
2023/02/02 09:29:01;;;;;;;7.47;3.40;;;8.50;99.90;;;;;;5033422;28;20440;-74
2023/02/02 09:31:48;;;;;;;11.48;3.03;;;8.40;99.90;;;;;;5029055;28;20444;-74
2023/02/02 09:34:34;;;;;;;8.63;3.37;;;8.40;99.90;;;;;;5031926;28;20706;-73
2023/02/02 09:37:19;;;;;;;8.87;2.83;;;8.30;99.90;;;;;;5033480;28;20499;-74
2023/02/02 09:40:06;;;;;;;9.63;3.60;;;8.40;99.90;;;;;;5024356;28;21085;-74
2023/02/02 09:43:06;;;;;;;15.40;3.77;;;8.40;99.90;;;;;;5033407;28;20343;-73
2023/02/02 09:46:03;;;;;;;24.90;3.50;;;8.40;99.90;;;;;;5027528;28;20450;-74
2023/02/02 09:48:57;;;;;;;8.40;3.30;;;8.50;99.90;;;;;;5033294;28;20440;-74
2023/02/02 09:51:49;;;;;;;8.63;3.03;;;8.50;99.90;;;;;;5030466;28;20499;-73
2023/02/02 09:54:40;;;;;;;13.40;2.93;;;8.50;99.90;;;;;;5026835;28;20436;-74
2023/02/02 09:57:36;;;;;;;8.10;2.87;;;8.50;99.90;;;;;;5031031;28;20889;-74
2023/02/02 10:00:30;;;;;;;9.20;3.00;;;8.50;99.90;;;;;;5020751;28;20459;-73
2023/02/02 10:03:21;;;;;;;15.77;3.47;;;8.60;99.90;;;;;;5033336;28;20506;-74
2023/02/02 10:06:23;;;;;;;14.97;3.00;;;8.60;99.90;;;;;;5032357;28;20480;-74
2023/02/02 10:09:26;;;;;;;7.90;2.73;;;8.60;99.90;;;;;;5028659;28;21459;-74
2023/02/02 10:12:25;;;;;;;9.53;2.23;;;8.50;99.90;;;;;;5026561;28;20469;-73
2023/02/02 10:15:19;;;;;;;5.30;2.47;;;8.60;99.90;;;;;;5031615;28;20519;-74
2023/02/02 10:18:12;;;;;;;12.35;2.67;;;8.60;99.90;;;;;;5030476;28;20540;-73
2023/02/02 10:21:01;;;;;;;9.20;2.20;;;8.70;99.90;;;;;;5024548;28;20209;-74
2023/02/02 10:23:48;;;;;;;11.27;2.73;;;8.70;99.90;;;;;;5023816;28;20201;-74
2023/02/02 10:26:38;;;;;;;14.10;3.03;;;8.70;99.90;;;;;;5025501;28;20472;-73
2023/02/02 10:29:33;;;;;;;8.97;2.40;;;8.60;99.90;;;;;;5023731;28;20449;-73
2023/02/02 10:32:24;;;;;;;13.10;3.23;;;8.60;99.90;;;;;;5030015;28;20523;-73
2023/02/02 10:35:29;;;;;;;10.63;4.20;;;8.60;99.90;;;;;;5030704;28;20946;-74
2023/02/02 10:38:22;;;;;;;6.70;2.20;;;8.60;99.90;;;;;;5029902;28;20432;-74
2023/02/02 10:41:19;;;;;;;11.40;2.87;;;8.60;99.90;;;;;;5030781;28;20424;-74
2023/02/02 10:44:17;;;;;;;14.20;2.40;;;8.70;99.90;;;;;;5025979;28;20457;-73
2023/02/02 10:47:08;;;;;;;10.30;2.90;;;8.60;99.90;;;;;;5022462;28;20476;-74
2023/02/02 10:50:03;;;;;;;18.13;3.40;;;8.60;99.90;;;;;;5020085;28;20448;-74
2023/02/02 10:52:55;;;;;;;9.00;3.00;;;8.60;99.90;;;;;;5019634;28;20233;-74
2023/02/02 10:55:45;;;;;;;8.70;2.30;;;8.60;99.90;;;;;;5017405;28;20452;-73
2023/02/02 10:58:40;;;;;;;13.33;2.90;;;8.60;99.90;;;;;;5017742;28;20795;-74
2023/02/02 11:01:26;;;;;;;10.90;2.80;;;8.60;99.90;;;;;;5026115;28;20550;-74
2023/02/02 11:07:19;;;;;;;14.47;2.80;;;8.60;99.90;;;;;;5028017;28;21073;-73
2023/02/02 11:10:05;;;;;;;9.53;2.60;;;8.60;99.90;;;;;;5016603;28;20513;-73
2023/02/02 11:12:52;;;;;;;13.43;2.53;;;8.60;99.90;;;;;;5025232;28;20572;-74
2023/02/02 11:15:39;;;;;;;11.00;2.70;;;8.60;99.90;;;;;;5028888;28;20419;-74
2023/02/02 11:18:29;;;;;;;8.73;2.43;;;8.60;99.90;;;;;;5023331;28;20419;-73
2023/02/02 11:21:25;;;;;;;6.43;2.20;;;8.60;99.90;;;;;;5025899;28;20447;-74
2023/02/02 11:24:22;;;;;;;10.63;2.40;;;8.60;99.90;;;;;;5024121;28;20217;-73
2023/02/02 11:27:13;;;;;;;6.63;2.37;;;8.60;99.90;;;;;;5018858;28;20846;-74
2023/02/02 11:30:08;;;;;;;8.30;2.63;;;8.60;99.90;;;;;;5021856;28;20924;-73
2023/02/02 11:32:56;;;;;;;11.33;2.10;;;8.60;99.90;;;;;;5021918;28;20434;-73
2023/02/02 11:35:54;;;;;;;6.00;1.97;;;8.60;99.90;;;;;;5025526;28;20591;-73
2023/02/02 11:38:39;;;;;;;10.47;2.23;;;8.70;99.90;;;;;;5013135;28;20460;-73
2023/02/02 11:41:25;;;;;;;6.83;2.73;;;8.80;99.90;;;;;;5042837;22;20451;-72
2023/02/02 11:44:23;;;;;;;7.17;1.87;;;8.80;99.90;;;;;;5060975;28;20446;-72
2023/02/02 11:47:20;;;;;;;9.20;2.40;;;8.80;99.90;;;;;;5067631;28;20692;-72
2023/02/02 11:50:17;;;;;;;5.70;2.30;;;8.80;99.90;;;;;;5065939;28;20442;-72
2023/02/02 11:53:03;;;;;;;9.93;3.53;;;8.80;99.90;;;;;;5047941;28;20480;-72
2023/02/02 11:55:49;;;;;;;9.70;2.50;;;8.80;99.90;;;;;;5032622;28;20439;-72
2023/02/02 11:58:54;;;;;;;7.77;1.87;;;8.80;99.90;;;;;;5037773;28;20434;-73
2023/02/02 12:01:40;;;;;;;7.30;2.10;;;8.80;99.90;;;;;;5043779;28;20520;-72
2023/02/02 12:04:26;;;;;;;9.80;2.23;;;8.80;99.90;;;;;;5043819;28;20983;-72
2023/02/02 12:07:22;;;;;;;8.90;2.17;;;8.80;99.90;;;;;;5033492;28;20479;-72
2023/02/02 12:10:19;;;;;;;6.47;2.00;;;8.80;99.90;;;;;;5047422;28;20448;-73
2023/02/02 12:13:09;;;;;;;8.57;2.20;;;8.80;99.90;;;;;;5045476;28;21038;-73
2023/02/02 12:16:06;;;;;;;6.23;2.20;;;8.80;99.90;;;;;;5044427;28;21075;-73
2023/02/02 12:19:22;;;;;;;7.77;2.20;;;8.80;99.90;;;;;;5037975;28;20456;-73
2023/02/02 12:22:24;;;;;;;5.57;1.90;;;8.80;99.90;;;;;;5046993;28;20546;-73
2023/02/02 12:25:29;;;;;;;8.87;1.90;;;8.80;99.90;;;;;;5050226;28;20448;-73
2023/02/02 12:28:28;;;;;;;12.10;2.40;;;8.90;99.90;;;;;;5040390;28;20487;-73
2023/02/02 12:31:25;;;;;;;8.50;1.67;;;8.90;99.90;;;;;;5046003;28;21038;-73
2023/02/02 12:34:22;;;;;;;6.13;1.80;;;9.00;99.90;;;;;;5052438;28;20991;-73
2023/02/02 12:37:17;;;;;;;10.53;1.87;;;9.00;99.90;;;;;;5038393;28;20440;-73
2023/02/02 12:40:25;;;;;;;8.93;1.90;;;9.00;99.90;;;;;;5047018;28;20452;-73
2023/02/02 12:43:18;;;;;;;10.13;1.67;;;9.10;99.90;;;;;;5049316;28;20479;-73
2023/02/02 12:46:18;;;;;;;9.23;2.23;;;9.10;99.90;;;;;;5040312;28;21071;-73
2023/02/02 12:49:22;;;;;;;5.90;2.23;;;9.10;99.90;;;;;;5039240;28;20448;-73
2023/02/02 12:52:21;;;;;;;5.37;1.93;;;9.00;99.90;;;;;;5049105;28;20467;-73
2023/02/02 12:55:22;;;;;;;8.43;1.73;;;9.10;99.90;;;;;;5047328;28;20447;-73
2023/02/02 12:58:24;;;;;;;11.50;1.80;;;9.10;99.90;;;;;;5042106;28;20805;-73
2023/02/02 13:01:30;;;;;;;6.17;2.00;;;9.10;99.90;;;;;;5046963;28;21065;-73
2023/02/02 13:04:38;;;;;;;7.80;1.87;;;9.20;99.90;;;;;;5043360;28;20459;-73
2023/02/02 13:07:36;;;;;;;4.70;1.60;;;9.20;99.90;;;;;;5044975;28;20520;-73
2023/02/02 13:10:27;;;;;;;21.60;9.03;;;9.20;99.90;;;;;;5051995;28;20463;-73
2023/02/02 13:13:17;;;;;;;23.37;10.13;;;9.20;99.90;;;;;;5046121;28;20665;-73
2023/02/02 13:16:08;;;;;;;11.80;3.60;;;9.20;99.90;;;;;;5038016;28;20443;-73
2023/02/02 13:18:59;;;;;;;3.63;1.57;;;9.20;99.90;;;;;;5051621;28;20479;-73
2023/02/02 13:21:46;;;;;;;12.77;4.97;;;9.10;99.90;;;;;;5053886;28;21097;-73
2023/02/02 13:24:36;;;;;;;8.77;3.70;;;9.10;99.90;;;;;;5042778;28;20526;-73
2023/02/02 13:27:24;;;;;;;6.03;2.47;;;9.00;99.90;;;;;;5038020;28;20470;-73
2023/02/02 13:30:17;;;;;;;22.73;9.03;;;9.00;99.90;;;;;;5047601;28;21055;-73
2023/02/02 13:33:11;;;;;;;9.93;4.97;;;9.10;99.90;;;;;;5040892;28;20470;-73
2023/02/02 13:36:01;;;;;;;9.50;3.13;;;9.10;99.90;;;;;;5041893;28;21121;-73
2023/02/02 13:38:48;;;;;;;10.80;4.00;;;9.10;99.90;;;;;;5039630;28;20491;-73
2023/02/02 13:41:33;;;;;;;10.43;2.57;;;9.20;99.90;;;;;;5048085;28;20467;-73
2023/02/02 13:44:29;;;;;;;5.93;1.50;;;9.20;99.90;;;;;;5036681;28;21018;-72
2023/02/02 13:47:21;;;;;;;6.70;1.60;;;9.30;99.90;;;;;;5042434;28;20467;-73
2023/02/02 13:50:13;;;;;;;7.23;1.97;;;9.30;99.90;;;;;;5045796;28;21013;-73
2023/02/02 13:53:25;;;;;;;4.67;1.80;;;9.30;99.90;;;;;;5037311;28;20445;-73
2023/02/02 13:56:29;;;;;;;3.40;1.50;;;9.30;99.90;;;;;;5034806;28;20578;-72
2023/02/02 13:59:34;;;;;;;8.27;1.80;;;9.30;99.90;;;;;;5044188;28;20451;-73
2023/02/02 14:02:26;;;;;;;3.73;1.70;;;9.30;99.90;;;;;;5040488;28;20617;-72
2023/02/02 14:05:24;;;;;;;6.10;2.30;;;9.40;99.90;;;;;;5049461;28;20439;-72
2023/02/02 14:08:20;;;;;;;7.73;1.40;;;9.40;99.90;;;;;;5043381;28;20487;-72
2023/02/02 14:11:07;;;;;;;5.03;1.20;;;9.40;99.90;;;;;;5048469;28;21201;-73
2023/02/02 14:17:04;;;;;;;6.20;1.60;;;9.40;99.90;;;;;;5037590;28;20439;-73
2023/02/02 14:19:55;;;;;;;7.60;1.47;;;9.40;99.90;;;;;;5044725;28;20471;-73
2023/02/02 14:22:47;;;;;;;2.50;1.00;;;9.50;99.90;;;;;;5040892;28;20463;-73
2023/02/02 14:26:06;;;;;;;2.77;1.30;;;9.50;99.90;;;;;;5039510;28;20446;-73
2023/02/02 14:28:51;;;;;;;7.53;2.10;;;9.50;99.90;;;;;;5047733;28;20446;-73
2023/02/02 14:31:54;;;;;;;5.30;1.43;;;9.50;99.90;;;;;;5042463;28;20792;-73
2023/02/02 14:34:41;;;;;;;3.13;1.40;;;9.50;99.90;;;;;;5051714;28;20447;-73
2023/02/02 14:37:41;;;;;;;3.30;1.60;;;9.40;99.90;;;;;;5034019;28;20575;-73
2023/02/02 14:40:44;;;;;;;5.30;1.20;;;9.40;99.90;;;;;;5053410;28;20538;-73
2023/02/02 14:43:43;;;;;;;4.63;1.50;;;9.40;99.90;;;;;;5055562;28;21020;-73
2023/02/02 14:46:39;;;;;;;7.87;2.83;;;9.40;99.90;;;;;;5042534;28;21072;-73
2023/02/02 14:49:34;;;;;;;4.57;1.70;;;9.40;99.90;;;;;;5043195;28;20513;-73
2023/02/02 14:52:23;;;;;;;7.17;1.87;;;9.40;99.90;;;;;;5038588;28;21375;-73
2023/02/02 14:55:18;;;;;;;5.73;1.40;;;9.40;99.90;;;;;;5034487;28;20448;-72
2023/02/02 14:58:06;;;;;;;5.50;1.53;;;9.40;99.90;;;;;;5044407;28;20538;-73
2023/02/02 15:00:57;;;;;;;7.53;1.40;;;9.50;99.90;;;;;;5038640;28;20450;-73
2023/02/02 15:03:52;;;;;;;8.23;1.20;;;9.40;99.90;;;;;;5054488;28;20421;-73